Time;durP1;ratioP1;P1;durP2;ratioP2;P2;SDS_P1;SDS_P2;PMS_P1;PMS_P2;Temp;Humidity;BMP_temperature;BMP_pressure;BME280_temperature;BME280_humidity;BME280_pressure;Samples;Min_cycle;Max_cycle;Signal;HPM_P1;HPM_P2
2021/06/25 00:00:42;;;;;;;3.4;2.6;;;;;;;15.33;94.94922;941.2406;;;;
2021/06/25 00:03:10;;;;;;;3.4;2.7;;;;;;;15.32;96.02246;941.2848;;;;
2021/06/25 00:05:36;;;;;;;3.3;2.8;;;;;;;15.45;95.41504;941.3318;;;;
2021/06/25 00:08:02;;;;;;;7.1;3.3;;;;;;;15.54;95.03223;941.2913;;;;
2021/06/25 00:10:33;;;;;;;6.6;3.7;;;;;;;15.59;94.69531;941.3484;;;;
2021/06/25 00:12:58;;;;;;;4.3;3.2;;;;;;;15.65;93.93555;941.3258;;;;
2021/06/25 00:15:23;;;;;;;3.7;3.1;;;;;;;15.77;93.79883;941.342;;;;
2021/06/25 00:17:49;;;;;;;4.3;3.4;;;;;;;15.72;94.08984;941.3134;;;;
2021/06/25 00:20:20;;;;;;;4.4;3.4;;;;;;;15.69;93.6543;941.2975;;;;
2021/06/25 00:22:47;;;;;;;4.7;3.3;;;;;;;15.69;93.43457;941.365;;;;
2021/06/25 00:25:12;;;;;;;3.5;2.9;;;;;;;15.69;93.46973;941.3682;;;;
2021/06/25 00:27:39;;;;;;;3.6;2.5;;;;;;;15.66;93.71582;941.3499;;;;
2021/06/25 00:30:05;;;;;;;3.9;2.5;;;;;;;15.63;93.70996;941.3075;;;;
2021/06/25 00:32:31;;;;;;;4.5;2.2;;;;;;;15.6;93.21875;941.3162;;;;
2021/06/25 00:34:56;;;;;;;3.2;2;;;;;;;15.6;93.46191;941.3652;;;;
2021/06/25 00:37:22;;;;;;;3.7;2.1;;;;;;;15.44;93.92578;941.3463;;;;
2021/06/25 00:39:47;;;;;;;2.8;2.4;;;;;;;15.53;93.77148;941.3507;;;;
2021/06/25 00:42:13;;;;;;;2.4;2;;;;;;;15.5;93.39453;941.3315;;;;
2021/06/25 00:44:38;;;;;;;4.4;2.3;;;;;;;15.52;93.74512;941.4102;;;;
2021/06/25 00:47:03;;;;;;;4;2.1;;;;;;;15.48;93.61914;941.4016;;;;
2021/06/25 00:49:29;;;;;;;2.6;2.2;;;;;;;15.37;93.92188;941.4113;;;;
2021/06/25 00:51:54;;;;;;;2.8;2.2;;;;;;;15.47;93.72363;941.4297;;;;
2021/06/25 00:54:19;;;;;;;3.6;2.3;;;;;;;15.55;93.55566;941.4606;;;;
2021/06/25 00:56:44;;;;;;;3.2;2.2;;;;;;;15.59;93.10352;941.4398;;;;
2021/06/25 00:59:09;;;;;;;4.6;2.2;;;;;;;15.57;93.84863;941.4677;;;;
2021/06/25 01:02:05;;;;;;;3.3;2;;;;;;;15.7;93.08984;941.483;;;;
2021/06/25 01:04:31;;;;;;;2.2;2;;;;;;;15.76;92.89551;941.4617;;;;
2021/06/25 01:06:56;;;;;;;3.1;2.3;;;;;;;15.71;92.54883;941.4556;;;;
2021/06/25 01:09:21;;;;;;;4.2;2.3;;;;;;;15.69;93.07617;941.3867;;;;
2021/06/25 01:11:46;;;;;;;4.5;2.7;;;;;;;15.73;92.55273;941.3641;;;;
2021/06/25 01:14:13;;;;;;;4.5;2.3;;;;;;;15.63;92.98438;941.395;;;;
2021/06/25 01:16:40;;;;;;;3.1;2.5;;;;;;;15.6;92.71094;941.4005;;;;
2021/06/25 01:19:09;;;;;;;2.5;2.3;;;;;;;15.73;91.62891;941.3833;;;;
2021/06/25 01:21:34;;;;;;;6.2;2.3;;;;;;;15.71;92.17969;941.3119;;;;
2021/06/25 01:24:02;;;;;;;2.5;2.1;;;;;;;15.72;91.77832;941.4098;;;;
2021/06/25 01:26:27;;;;;;;2.3;2;;;;;;;15.7;91.91113;941.3633;;;;
2021/06/25 01:28:55;;;;;;;2.4;1.9;;;;;;;15.77;91.83398;941.4504;;;;
2021/06/25 01:31:20;;;;;;;2.5;2.1;;;;;;;15.84;92.10352;941.4014;;;;
2021/06/25 01:33:46;;;;;;;2.4;2.2;;;;;;;15.85;92.08301;941.4214;;;;
2021/06/25 01:36:11;;;;;;;3.4;2.3;;;;;;;15.85;92.34863;941.3917;;;;
2021/06/25 01:38:40;;;;;;;2.3;1.8;;;;;;;15.64;92.14258;941.4094;;;;
2021/06/25 01:41:05;;;;;;;2.6;1.7;;;;;;;15.54;92.74609;941.2792;;;;
2021/06/25 01:43:34;;;;;;;3;2;;;;;;;15.48;93.19238;941.3309;;;;
2021/06/25 01:45:59;;;;;;;3.3;2.2;;;;;;;15.55;92.93066;941.3057;;;;
2021/06/25 01:48:32;;;;;;;3.6;1.7;;;;;;;15.66;92.51465;941.2712;;;;
2021/06/25 01:51:01;;;;;;;2.4;1.7;;;;;;;15.62;92.86523;941.2755;;;;
2021/06/25 01:53:30;;;;;;;1.8;1.7;;;;;;;15.5;93.61328;941.2834;;;;
2021/06/25 01:55:57;;;;;;;2.4;1.7;;;;;;;15.56;93.4082;941.1395;;;;
2021/06/25 01:58:20;;;;;;;2;1.8;;;;;;;15.63;92.85547;941.1422;;;;
2021/06/25 02:00:48;;;;;;;2.6;2;;;;;;;15.6;92.67578;941.2198;;;;
2021/06/25 02:03:13;;;;;;;2.8;1.9;;;;;;;15.6;92.96484;941.2672;;;;
2021/06/25 02:05:42;;;;;;;3.5;2.1;;;;;;;15.69;92.73047;941.2414;;;;
2021/06/25 02:08:07;;;;;;;2.7;2.3;;;;;;;15.71;92.43359;941.1907;;;;
2021/06/25 02:10:37;;;;;;;2;1.9;;;;;;;15.74;92.3125;941.1833;;;;
2021/06/25 02:13:04;;;;;;;2.9;2;;;;;;;15.52;92.65918;941.163;;;;
2021/06/25 02:15:38;;;;;;;2.2;1.9;;;;;;;15.43;93.18262;941.1016;;;;
2021/06/25 02:18:04;;;;;;;2.2;1.8;;;;;;;15.37;93.66797;941.0695;;;;
2021/06/25 02:20:34;;;;;;;3.5;2.1;;;;;;;15.37;93.60938;941.0358;;;;
2021/06/25 02:23:02;;;;;;;3.1;2;;;;;;;15.38;93.90039;941.0117;;;;
2021/06/25 02:25:27;;;;;;;2.4;2.2;;;;;;;15.43;93.55371;941.0206;;;;
2021/06/25 02:27:54;;;;;;;2.3;1.7;;;;;;;15.31;94.2334;940.9911;;;;
2021/06/25 02:30:19;;;;;;;2;1.8;;;;;;;15.44;94.14453;941.035;;;;
2021/06/25 02:32:47;;;;;;;4.6;2.1;;;;;;;15.55;93.39453;940.918;;;;
2021/06/25 02:35:12;;;;;;;3.4;2;;;;;;;15.62;93.53516;940.9319;;;;
2021/06/25 02:37:38;;;;;;;4.1;2.5;;;;;;;15.67;93.29199;940.8906;;;;
2021/06/25 02:40:03;;;;;;;4.4;2.1;;;;;;;15.67;92.64551;940.918;;;;
2021/06/25 02:42:54;;;;;;;3.4;2.2;;;;;;;15.55;93.23242;940.9494;;;;
2021/06/25 02:45:21;;;;;;;3.5;2.2;;;;;;;15.51;93.97559;940.8965;;;;
2021/06/25 02:47:46;;;;;;;3.2;2.1;;;;;;;15.55;93.9834;940.8635;;;;
2021/06/25 02:50:15;;;;;;;4.1;2.2;;;;;;;15.58;92.94727;940.8368;;;;
2021/06/25 02:52:41;;;;;;;2.9;2;;;;;;;15.59;92.56055;940.8185;;;;
2021/06/25 02:55:11;;;;;;;2.6;2.1;;;;;;;15.49;92.93262;940.8308;;;;
2021/06/25 02:57:39;;;;;;;6.1;2.3;;;;;;;15.47;93.66602;940.8141;;;;
2021/06/25 03:00:05;;;;;;;2.2;2;;;;;;;15.45;92.47266;940.7316;;;;
2021/06/25 03:02:30;;;;;;;2.4;1.9;;;;;;;15.31;93.33105;940.8137;;;;
2021/06/25 03:04:56;;;;;;;2.3;2.1;;;;;;;15.32;93.18262;940.8186;;;;
2021/06/25 03:07:21;;;;;;;3;2;;;;;;;15.27;93.23047;940.8108;;;;
2021/06/25 03:09:46;;;;;;;3;1.9;;;;;;;15.3;93.32715;940.8083;;;;
2021/06/25 03:12:14;;;;;;;2.9;2.4;;;;;;;15.19;93.375;940.7836;;;;
2021/06/25 03:14:41;;;;;;;2.1;1.9;;;;;;;15.24;92.99219;940.75;;;;
2021/06/25 03:17:09;;;;;;;3.1;2.5;;;;;;;15.29;92.88867;940.7112;;;;
2021/06/25 03:19:38;;;;;;;3.7;2.8;;;;;;;15.3;92.95703;940.7159;;;;
2021/06/25 03:22:04;;;;;;;5.1;3.8;;;;;;;15.22;92.93066;940.7131;;;;
2021/06/25 03:24:32;;;;;;;4.7;3;;;;;;;15.13;93.64941;940.7156;;;;
2021/06/25 03:26:57;;;;;;;4.6;2.8;;;;;;;15.16;94.00195;940.7428;;;;
2021/06/25 03:29:26;;;;;;;3.3;3;;;;;;;15.18;94.04004;940.7804;;;;
2021/06/25 03:31:51;;;;;;;3.6;2.9;;;;;;;15.2;94.05762;940.7314;;;;
2021/06/25 03:34:18;;;;;;;4.3;2.8;;;;;;;15.28;93.55371;940.7601;;;;
2021/06/25 03:36:43;;;;;;;3.3;2.7;;;;;;;15.36;92.70508;940.7333;;;;
2021/06/25 03:39:11;;;;;;;4.7;3.1;;;;;;;15.16;94.51172;940.7484;;;;
2021/06/25 03:41:36;;;;;;;3.1;2.9;;;;;;;15.31;93.96582;940.7584;;;;
2021/06/25 03:44:01;;;;;;;2.5;2.3;;;;;;;15.37;93.22852;940.8167;;;;
2021/06/25 03:46:28;;;;;;;2.2;2;;;;;;;15.41;93.04004;940.8455;;;;
2021/06/25 03:48:53;;;;;;;3.8;2.7;;;;;;;15.5;92.5166;940.8308;;;;
2021/06/25 03:51:18;;;;;;;3.3;2.3;;;;;;;15.46;92.2207;940.8109;;;;
2021/06/25 03:53:47;;;;;;;2.3;2.1;;;;;;;15.43;92.44336;940.8272;;;;
2021/06/25 03:56:12;;;;;;;2.1;1.8;;;;;;;15.47;92.90332;940.7941;;;;
2021/06/25 03:58:40;;;;;;;5.1;2.2;;;;;;;15.5;93.08203;940.8741;;;;
2021/06/25 04:02:28;;;;;;;3.7;2.2;;;;;;;15.35;94.89746;940.8561;;;;
2021/06/25 04:04:53;;;;;;;2;1.8;;;;;;;15.5;94.76855;940.8083;;;;
2021/06/25 04:07:18;;;;;;;2;1.8;;;;;;;15.51;93.9043;940.8147;;;;
2021/06/25 04:09:43;;;;;;;2.9;2.4;;;;;;;15.64;94.24512;940.8073;;;;
2021/06/25 04:12:08;;;;;;;2.6;1.9;;;;;;;15.71;92.37598;940.7997;;;;
2021/06/25 04:14:35;;;;;;;1.8;1.6;;;;;;;15.7;91.3125;940.8293;;;;
2021/06/25 04:17:00;;;;;;;2;1.9;;;;;;;15.88;91.00195;940.8157;;;;
2021/06/25 04:19:27;;;;;;;3.9;2.5;;;;;;;15.93;91.64844;940.8265;;;;
2021/06/25 04:21:53;;;;;;;2.5;1.9;;;;;;;16.03;90.57129;940.7707;;;;
2021/06/25 04:24:18;;;;;;;2.4;2;;;;;;;16.17;90.39063;940.7511;;;;
2021/06/25 04:26:43;;;;;;;2.5;2;;;;;;;16.22;89.70801;940.7446;;;;
2021/06/25 04:29:14;;;;;;;2.1;1.5;;;;;;;16.33;87.99414;940.8312;;;;
2021/06/25 04:31:47;;;;;;;2.3;1.3;;;;;;;16.5;86.38379;940.798;;;;
2021/06/25 04:34:08;;;;;;;2.7;1.7;;;;;;;16.53;85.38379;940.7735;;;;
2021/06/25 04:36:40;;;;;;;1.6;1.2;;;;;;;16.45;84.63867;940.8322;;;;
2021/06/25 04:39:11;;;;;;;3.2;1.4;;;;;;;16.48;85.4082;940.8697;;;;
2021/06/25 04:41:43;;;;;;;1.6;1.4;;;;;;;16.45;85.08984;940.825;;;;
2021/06/25 04:44:12;;;;;;;2.3;1.4;;;;;;;16.47;86.83008;940.9075;;;;
2021/06/25 04:46:38;;;;;;;3.5;1.3;;;;;;;16.49;85.90723;940.8575;;;;
2021/06/25 04:49:06;;;;;;;1.4;1.3;;;;;;;16.58;86.83008;940.8759;;;;
2021/06/25 04:51:31;;;;;;;2.6;1.6;;;;;;;16.63;87.08203;940.8308;;;;
2021/06/25 04:54:00;;;;;;;1.8;1.4;;;;;;;16.84;86.04785;940.8091;;;;
2021/06/25 04:56:25;;;;;;;1.5;1.4;;;;;;;17.03;84.54199;940.7953;;;;
2021/06/25 04:58:50;;;;;;;2.2;1.3;;;;;;;17.07;85.08301;940.8278;;;;
2021/06/25 05:01:15;;;;;;;3;1.7;;;;;;;17.08;83.24219;940.8116;;;;
2021/06/25 05:03:42;;;;;;;1.7;1.6;;;;;;;17.14;82.80176;940.8148;;;;
2021/06/25 05:06:08;;;;;;;1.3;1.2;;;;;;;17.09;82.77832;940.7576;;;;
2021/06/25 05:08:35;;;;;;;1.6;1.2;;;;;;;17.28;83.25684;940.8409;;;;
2021/06/25 05:11:00;;;;;;;1.9;1.3;;;;;;;17.17;84.40918;940.7751;;;;
2021/06/25 05:13:29;;;;;;;1.7;1.3;;;;;;;17.23;82.59766;940.7313;;;;
2021/06/25 05:15:59;;;;;;;1.3;1.2;;;;;;;17.12;80.875;940.7548;;;;
2021/06/25 05:18:29;;;;;;;1.6;1.2;;;;;;;17.14;83.3457;940.7876;;;;
2021/06/25 05:20:58;;;;;;;1.7;1.4;;;;;;;16.92;85.72754;940.7672;;;;
2021/06/25 05:23:23;;;;;;;1.5;1.4;;;;;;;16.88;84.99902;940.6897;;;;
2021/06/25 05:25:54;;;;;;;2.4;1.6;;;;;;;16.93;86.42285;940.7051;;;;
2021/06/25 05:28:17;;;;;;;2;1.5;;;;;;;16.91;85.58496;940.6418;;;;
2021/06/25 05:30:45;;;;;;;2;1.5;;;;;;;16.91;85.86133;940.6588;;;;
2021/06/25 05:33:11;;;;;;;2.7;1.7;;;;;;;16.74;85.91211;940.6401;;;;
2021/06/25 05:35:38;;;;;;;1.6;1.5;;;;;;;16.64;86.07617;940.6216;;;;
2021/06/25 05:38:03;;;;;;;1.6;1.3;;;;;;;16.52;86.65527;940.6763;;;;
2021/06/25 05:40:30;;;;;;;4.1;1.8;;;;;;;16.67;85.9541;940.7222;;;;
2021/06/25 05:42:56;;;;;;;2.4;1.7;;;;;;;16.83;85.68652;940.7175;;;;
2021/06/25 05:45:22;;;;;;;1.7;1.5;;;;;;;16.98;84.74121;940.7497;;;;
2021/06/25 05:47:47;;;;;;;2.8;1.3;;;;;;;17.43;84.83984;940.7596;;;;
2021/06/25 05:50:15;;;;;;;3.2;1.1;;;;;;;18.83;77.76758;940.7161;;;;
2021/06/25 05:52:39;;;;;;;2.3;1.3;;;;;;;20.16;71.02246;940.713;;;;
2021/06/25 05:55:06;;;;;;;1.4;0.8;;;;;;;20.74;66.46387;940.6594;;;;
2021/06/25 05:57:31;;;;;;;1.3;0.7;;;;;;;20.1;64.92188;940.6658;;;;
2021/06/25 05:59:58;;;;;;;1.1;0.8;;;;;;;20.41;67.33789;940.7381;;;;
2021/06/25 06:02:23;;;;;;;1.9;0.9;;;;;;;20.49;67.2334;940.6985;;;;
2021/06/25 06:04:50;;;;;;;2.5;1.1;;;;;;;20.44;69.03516;940.6877;;;;
2021/06/25 06:07:17;;;;;;;2.6;1.2;;;;;;;20.19;67.91016;940.697;;;;
2021/06/25 06:09:43;;;;;;;1.9;1.1;;;;;;;19.98;67.24805;940.5828;;;;
2021/06/25 06:12:08;;;;;;;1.5;1;;;;;;;20.72;66.68262;940.5765;;;;
2021/06/25 06:14:34;;;;;;;3;1.2;;;;;;;21.83;64.2373;940.4962;;;;
2021/06/25 06:16:59;;;;;;;2.8;1;;;;;;;23.2;58.21973;940.4994;;;;
2021/06/25 06:19:36;;;;;;;1.3;0.8;;;;;;;23.82;56.29883;940.4102;;;;
2021/06/25 06:31:41;;;;;;;1.4;0.9;;;;;;;24.94;50.91895;940.3156;;;;
2021/06/25 06:34:10;;;;;;;2.5;0.6;;;;;;;25.14;52.47656;940.2847;;;;
2021/06/25 06:36:40;;;;;;;0.8;0.7;;;;;;;23.2;55.45703;940.2672;;;;
2021/06/25 06:39:00;;;;;;;0.7;0.7;;;;;;;25.67;51.45215;940.2169;;;;
2021/06/25 06:41:27;;;;;;;0.9;0.8;;;;;;;26.23;49.03125;940.1908;;;;
2021/06/25 06:43:53;;;;;;;1;0.8;;;;;;;27.65;47.45313;940.2263;;;;
2021/06/25 06:46:34;;;;;;;2;1;;;;;;;27.53;46.0293;940.2261;;;;
2021/06/25 06:49:00;;;;;;;1.4;0.7;;;;;;;27.69;45.92676;940.2076;;;;
2021/06/25 06:51:28;;;;;;;0.9;0.8;;;;;;;27.04;45.73047;940.166;;;;
2021/06/25 06:53:56;;;;;;;0.6;0.6;;;;;;;26.39;45.8418;940.1916;;;;
2021/06/25 06:56:18;;;;;;;1.1;0.8;;;;;;;25.72;48.46777;940.2025;;;;
2021/06/25 06:58:46;;;;;;;0.6;0.6;;;;;;;26.13;47.44727;940.1914;;;;
2021/06/25 07:01:10;;;;;;;0.8;0.7;;;;;;;26.71;49.04785;940.244;;;;
2021/06/25 07:03:38;;;;;;;1.3;0.6;;;;;;;28.89;43.37207;940.2791;;;;
2021/06/25 07:06:03;;;;;;;1;0.7;;;;;;;30.39;40.17188;940.18;;;;
2021/06/25 07:08:31;;;;;;;1.1;0.6;;;;;;;28.28;43.38477;940.2087;;;;
2021/06/25 07:10:56;;;;;;;0.7;0.5;;;;;;;27.62;45.18359;940.2175;;;;
2021/06/25 07:13:24;;;;;;;0.8;0.8;;;;;;;26.34;49.35059;940.2117;;;;
2021/06/25 07:15:57;;;;;;;0.7;0.7;;;;;;;27.73;45.64551;940.2553;;;;
2021/06/25 07:18:25;;;;;;;0.4;0.4;;;;;;;28.26;41.93164;940.1909;;;;
2021/06/25 07:20:50;;;;;;;0.7;0.6;;;;;;;28.47;43.43848;940.2031;;;;
2021/06/25 07:23:18;;;;;;;0.5;0.5;;;;;;;29.36;40.81934;940.1556;;;;
2021/06/25 07:25:43;;;;;;;1;0.7;;;;;;;30.36;40.45605;940.1925;;;;
2021/06/25 07:28:11;;;;;;;0.6;0.6;;;;;;;30.5;39.66797;940.2352;;;;
2021/06/25 07:30:36;;;;;;;1.8;0.7;;;;;;;30.92;36.97949;940.1897;;;;
2021/06/25 07:33:03;;;;;;;1.3;0.9;;;;;;;30.32;39.13965;940.2569;;;;
2021/06/25 07:35:28;;;;;;;2.3;0.9;;;;;;;31.78;37.5166;940.2477;;;;
2021/06/25 07:37:56;;;;;;;0.6;0.6;;;;;;;30.38;39.20313;940.2253;;;;
2021/06/25 07:40:21;;;;;;;1.3;0.7;;;;;;;30.3;39.29297;940.2155;;;;
2021/06/25 07:42:49;;;;;;;1.5;0.8;;;;;;;30.82;40.58105;940.2413;;;;
2021/06/25 07:45:14;;;;;;;1.7;0.8;;;;;;;30.36;40.15723;940.2151;;;;
2021/06/25 07:47:41;;;;;;;0.8;0.7;;;;;;;30.02;41.47559;940.2022;;;;
2021/06/25 07:50:06;;;;;;;0.7;0.7;;;;;;;30.39;41.19824;940.2214;;;;
2021/06/25 07:52:31;;;;;;;6.9;1;;;;;;;31.33;38.25684;940.1755;;;;
2021/06/25 07:55:00;;;;;;;1;0.6;;;;;;;31.1;38.62012;940.185;;;;
2021/06/25 07:57:25;;;;;;;0.7;0.6;;;;;;;30.47;41.63574;940.1747;;;;
2021/06/25 07:59:51;;;;;;;1;0.8;;;;;;;31.17;37.89746;940.1281;;;;
2021/06/25 08:02:16;;;;;;;1.1;0.8;;;;;;;30.24;38.70313;940.082;;;;
2021/06/25 08:04:45;;;;;;;1.4;0.8;;;;;;;30.58;39.98633;940.1028;;;;
2021/06/25 08:07:07;;;;;;;1.2;0.9;;;;;;;30.09;39.77539;940.1092;;;;
2021/06/25 08:09:33;;;;;;;1.7;0.8;;;;;;;29.96;42.26953;940.0983;;;;
2021/06/25 08:11:58;;;;;;;0.9;0.8;;;;;;;28.99;44.79785;940.1069;;;;
2021/06/25 08:14:25;;;;;;;1.7;0.9;;;;;;;30.48;41.29102;940.0997;;;;
2021/06/25 08:16:54;;;;;;;2.1;0.8;;;;;;;28.83;43.90137;940.0591;;;;
2021/06/25 08:19:22;;;;;;;2;0.8;;;;;;;27.62;48.25879;940.118;;;;
2021/06/25 08:21:47;;;;;;;0.7;0.7;;;;;;;26.28;48.06641;940.0122;;;;
2021/06/25 08:24:14;;;;;;;1.4;0.8;;;;;;;24.96;53.09375;940.0115;;;;
2021/06/25 08:26:39;;;;;;;0.8;0.8;;;;;;;25.02;56.00293;939.9644;;;;
2021/06/25 08:29:07;;;;;;;0.7;0.7;;;;;;;26.78;49.88672;940.0338;;;;
2021/06/25 08:31:32;;;;;;;1.4;0.7;;;;;;;28.96;42.2002;940.0421;;;;
2021/06/25 08:34:00;;;;;;;0.8;0.7;;;;;;;29.42;40.88379;940.0341;;;;
2021/06/25 08:36:25;;;;;;;0.5;0.5;;;;;;;29.95;41.69531;940.0736;;;;
2021/06/25 08:38:53;;;;;;;1.1;0.7;;;;;;;29.43;41.15918;939.9944;;;;
2021/06/25 08:41:18;;;;;;;0.6;0.6;;;;;;;29.31;40.75488;939.975;;;;
2021/06/25 08:43:45;;;;;;;0.7;0.7;;;;;;;29.18;41.07715;939.9144;;;;
2021/06/25 08:46:10;;;;;;;0.8;0.8;;;;;;;27.63;43.52344;939.9603;;;;
2021/06/25 08:48:36;;;;;;;1.2;0.9;;;;;;;27.69;45.84473;939.9364;;;;
2021/06/25 08:51:02;;;;;;;0.9;0.6;;;;;;;27.6;45.00391;939.9336;;;;
2021/06/25 08:53:27;;;;;;;0.7;0.7;;;;;;;26.5;46.6582;939.938;;;;
2021/06/25 08:55:54;;;;;;;0.6;0.6;;;;;;;26.74;48.86133;939.8929;;;;
2021/06/25 08:58:19;;;;;;;0.6;0.6;;;;;;;25.6;51.14844;939.8879;;;;
2021/06/25 09:00:48;;;;;;;4.3;0.8;;;;;;;25.02;51.81348;939.8757;;;;
2021/06/25 09:03:14;;;;;;;1.5;0.9;;;;;;;24.89;54.18164;939.9656;;;;
2021/06/25 09:05:41;;;;;;;1.1;0.8;;;;;;;25.99;51.44043;939.9089;;;;
2021/06/25 09:08:06;;;;;;;0.7;0.7;;;;;;;25.59;52.70703;939.863;;;;
2021/06/25 09:10:31;;;;;;;0.9;0.7;;;;;;;26.56;48.86621;939.8092;;;;
2021/06/25 09:13:01;;;;;;;0.7;0.7;;;;;;;27.77;44.03516;939.8628;;;;
2021/06/25 09:15:28;;;;;;;0.9;0.9;;;;;;;27.94;43.32813;939.8928;;;;
2021/06/25 09:17:53;;;;;;;0.8;0.8;;;;;;;27.1;44.68066;939.8975;;;;
2021/06/25 09:20:22;;;;;;;0.9;0.6;;;;;;;26.89;46.34277;939.8416;;;;
2021/06/25 09:22:47;;;;;;;0.9;0.9;;;;;;;26.18;48.45801;939.7791;;;;
2021/06/25 09:25:12;;;;;;;0.8;0.8;;;;;;;23.69;57;939.886;;;;
2021/06/25 09:27:40;;;;;;;0.9;0.9;;;;;;;24.21;54.39453;939.7177;;;;
2021/06/25 09:30:06;;;;;;;0.9;0.9;;;;;;;23.73;58.32324;939.8809;;;;
2021/06/25 09:32:30;;;;;;;1.3;1.2;;;;;;;23.95;56.03418;939.8508;;;;
2021/06/25 09:34:57;;;;;;;2.3;0.8;;;;;;;24.13;55.05566;939.9;;;;
2021/06/25 09:37:23;;;;;;;1.8;1.1;;;;;;;23.93;55.97266;939.94;;;;
2021/06/25 09:39:48;;;;;;;1.9;1.1;;;;;;;23.42;55.82617;939.9749;;;;
2021/06/25 09:42:16;;;;;;;1;1;;;;;;;23.85;54.35059;939.9311;;;;
2021/06/25 09:44:41;;;;;;;1.1;1;;;;;;;23.62;54.80469;939.9849;;;;
2021/06/25 09:47:06;;;;;;;1;0.9;;;;;;;23.65;55.71387;940.0059;;;;
2021/06/25 09:49:33;;;;;;;1.6;1;;;;;;;24.06;53.66895;940.027;;;;
2021/06/25 09:51:58;;;;;;;1.2;1;;;;;;;23.83;55.24121;939.9895;;;;
2021/06/25 09:54:23;;;;;;;1.2;0.9;;;;;;;23.42;55.56738;940.0189;;;;
2021/06/25 09:56:53;;;;;;;1.4;1;;;;;;;23;57.22949;940.0053;;;;
2021/06/25 09:59:22;;;;;;;1.5;1;;;;;;;22.97;58.00098;940.034;;;;
2021/06/25 10:01:46;;;;;;;1.2;1.1;;;;;;;22.82;57.58203;939.9252;;;;
2021/06/25 10:04:07;;;;;;;1.2;1.1;;;;;;;22.68;57.35254;939.9558;;;;
2021/06/25 10:06:35;;;;;;;3.6;1.2;;;;;;;22.53;58.65918;939.9306;;;;
2021/06/25 10:09:01;;;;;;;2.7;1.1;;;;;;;22.44;58.92969;939.9408;;;;
2021/06/25 10:11:26;;;;;;;1.4;1.1;;;;;;;22.48;59.25098;939.9135;;;;
2021/06/25 10:13:51;;;;;;;1.1;0.9;;;;;;;22.36;59.12988;939.8953;;;;
2021/06/25 10:16:24;;;;;;;1.2;1.1;;;;;;;22.35;59.21094;939.92;;;;
2021/06/25 10:18:52;;;;;;;1.5;1;;;;;;;22.44;58.36523;939.9053;;;;
2021/06/25 10:21:17;;;;;;;1.3;1.2;;;;;;;22.24;59.86523;939.913;;;;
2021/06/25 10:23:42;;;;;;;2.2;1.5;;;;;;;21.78;61.26758;939.9161;;;;
2021/06/25 10:26:11;;;;;;;2.7;1.2;;;;;;;21.92;61.96582;939.8992;;;;
2021/06/25 10:28:34;;;;;;;1.4;1.2;;;;;;;22.09;60.45313;939.9714;;;;
2021/06/25 10:31:02;;;;;;;1.4;1.3;;;;;;;22.33;60.58008;939.9807;;;;
2021/06/25 10:33:27;;;;;;;1.9;1.4;;;;;;;22.33;60.43945;939.9704;;;;
2021/06/25 10:35:53;;;;;;;1.3;1.2;;;;;;;22.32;59.40527;939.9464;;;;
2021/06/25 10:38:19;;;;;;;1.3;1.2;;;;;;;22.16;60.82617;939.9634;;;;
2021/06/25 10:40:44;;;;;;;1.4;1.2;;;;;;;21.82;62.51465;939.9529;;;;
2021/06/25 10:43:10;;;;;;;1.4;1.3;;;;;;;22.08;60.66211;939.9052;;;;
2021/06/25 10:45:35;;;;;;;1.2;1.1;;;;;;;22.09;60.30176;939.9405;;;;
2021/06/25 10:48:00;;;;;;;1.2;1.1;;;;;;;22.31;58.99512;940.0114;;;;
2021/06/25 10:50:26;;;;;;;2.2;1.2;;;;;;;22.25;60.27637;939.9412;;;;
2021/06/25 10:52:51;;;;;;;1.2;1.1;;;;;;;22.12;61.0791;939.9241;;;;
2021/06/25 10:55:18;;;;;;;1.8;1.3;;;;;;;21.91;62.9707;939.9384;;;;
2021/06/25 10:57:43;;;;;;;1.4;1.2;;;;;;;22.24;61.68164;939.9424;;;;
2021/06/25 11:00:08;;;;;;;1.6;1.3;;;;;;;22.29;58.96777;939.9131;;;;
2021/06/25 11:02:33;;;;;;;1.4;1.3;;;;;;;22.46;58.81445;939.9417;;;;
2021/06/25 11:04:58;;;;;;;1.4;1.3;;;;;;;22.5;58.85645;939.9039;;;;
2021/06/25 11:07:25;;;;;;;3.1;1.8;;;;;;;22.52;59.18555;939.957;;;;
2021/06/25 11:09:51;;;;;;;1.6;1.4;;;;;;;22.37;60.59766;939.9276;;;;
2021/06/25 11:12:15;;;;;;;1.6;1.3;;;;;;;22.76;58.95996;939.9009;;;;
2021/06/25 11:14:43;;;;;;;1.2;1.1;;;;;;;22.56;58.49902;939.8937;;;;
2021/06/25 11:17:08;;;;;;;1.5;1.4;;;;;;;22.56;58.65039;939.8264;;;;
2021/06/25 11:19:36;;;;;;;1.4;1.3;;;;;;;22.42;59.68848;939.8975;;;;
2021/06/25 11:22:01;;;;;;;1.3;1.2;;;;;;;22.83;58.1123;939.908;;;;
2021/06/25 11:24:26;;;;;;;1.1;1;;;;;;;22.55;59.2959;939.8901;;;;
2021/06/25 11:26:51;;;;;;;1.5;1.2;;;;;;;22.16;61.16699;939.8797;;;;
2021/06/25 11:29:16;;;;;;;2.2;1.4;;;;;;;22.21;61.19727;939.8961;;;;
2021/06/25 11:31:42;;;;;;;1.3;1.2;;;;;;;22.41;59.75781;939.8019;;;;
2021/06/25 11:34:07;;;;;;;1.5;1.2;;;;;;;22.1;61.53418;939.8224;;;;
2021/06/25 11:36:37;;;;;;;1;1;;;;;;;22.54;59.54004;939.8223;;;;
2021/06/25 11:39:00;;;;;;;1.1;1.1;;;;;;;22.35;59.94922;939.7166;;;;
2021/06/25 11:41:26;;;;;;;1.4;1.3;;;;;;;22.3;57.99609;939.68;;;;
2021/06/25 11:43:53;;;;;;;1.2;1.1;;;;;;;22.62;58.40234;939.687;;;;
2021/06/25 11:46:18;;;;;;;1.3;1.2;;;;;;;22.65;58.76855;939.6192;;;;
2021/06/25 11:48:46;;;;;;;1.5;1.2;;;;;;;23.33;58.75293;939.6889;;;;
2021/06/25 11:51:12;;;;;;;2.2;1.1;;;;;;;23.79;56.77832;939.6649;;;;
2021/06/25 11:53:36;;;;;;;1.3;1;;;;;;;23.24;56.22754;939.6655;;;;
2021/06/25 11:56:03;;;;;;;1.2;1.1;;;;;;;23.6;55.38965;939.706;;;;
2021/06/25 11:58:29;;;;;;;1.7;1.2;;;;;;;23.61;54.63867;939.6462;;;;
2021/06/25 12:00:53;;;;;;;1.6;1;;;;;;;23.92;54.41797;939.7061;;;;
2021/06/25 12:03:18;;;;;;;1.1;1;;;;;;;23.77;56.21094;939.6501;;;;
2021/06/25 12:05:45;;;;;;;1.2;1.1;;;;;;;23.33;56.03711;939.6216;;;;
2021/06/25 12:08:12;;;;;;;1;1;;;;;;;23.66;53.65527;939.6033;;;;
2021/06/25 12:10:38;;;;;;;1.3;0.9;;;;;;;23.29;56.91406;939.6021;;;;
2021/06/25 12:13:08;;;;;;;1.2;1;;;;;;;22.81;58.04004;939.5287;;;;
2021/06/25 12:15:40;;;;;;;1.1;1.1;;;;;;;22.94;56.15332;939.5575;;;;
2021/06/25 12:18:08;;;;;;;2.7;1.1;;;;;;;23.64;56.94727;939.5219;;;;
2021/06/25 12:20:33;;;;;;;2;1;;;;;;;23.92;51.3916;939.4583;;;;
2021/06/25 12:23:04;;;;;;;0.8;0.8;;;;;;;24.69;51.76367;939.4774;;;;
2021/06/25 12:25:40;;;;;;;1.2;0.9;;;;;;;24.69;48.96973;939.421;;;;
2021/06/25 12:28:08;;;;;;;1.3;1.1;;;;;;;25.29;48.03223;939.3789;;;;
2021/06/25 12:30:42;;;;;;;1;0.9;;;;;;;25.65;49.54688;939.3108;;;;
2021/06/25 12:33:07;;;;;;;1;1;;;;;;;25.96;47.27637;939.3004;;;;
2021/06/25 12:35:40;;;;;;;0.9;0.9;;;;;;;26.4;45.32129;939.2799;;;;
2021/06/25 12:38:06;;;;;;;0.8;0.8;;;;;;;26.55;47.17188;939.2358;;;;
2021/06/25 12:40:30;;;;;;;0.7;0.7;;;;;;;26.35;45.43555;939.3237;;;;
2021/06/25 12:42:55;;;;;;;1;0.9;;;;;;;26.2;46.79199;939.2798;;;;
2021/06/25 12:45:24;;;;;;;1.5;0.9;;;;;;;26.24;45.67188;939.2859;;;;
2021/06/25 12:47:49;;;;;;;0.8;0.8;;;;;;;26.1;45.17285;939.1994;;;;
2021/06/25 12:50:22;;;;;;;0.9;0.9;;;;;;;25.87;50.62402;939.2173;;;;
2021/06/25 12:52:47;;;;;;;0.7;0.7;;;;;;;24.59;52.60156;939.2417;;;;
2021/06/25 12:55:13;;;;;;;1.9;0.9;;;;;;;24.94;50.23535;939.2321;;;;
2021/06/25 12:57:39;;;;;;;0.7;0.7;;;;;;;25.19;48.31543;939.2065;;;;
2021/06/25 13:00:04;;;;;;;2.8;0.8;;;;;;;25.44;46.9834;939.1858;;;;
2021/06/25 13:03:10;;;;;;;0.9;0.9;;;;;;;25.42;48.09277;939.1415;;;;
2021/06/25 13:05:38;;;;;;;0.9;0.8;;;;;;;25.38;46.64844;939.0935;;;;
2021/06/25 13:08:03;;;;;;;1;0.8;;;;;;;25.61;47.13281;939.1678;;;;
2021/06/25 13:10:31;;;;;;;0.9;0.9;;;;;;;25.65;46.22656;939.0455;;;;
2021/06/25 13:12:57;;;;;;;0.9;0.9;;;;;;;25.78;48.1084;939.046;;;;
2021/06/25 13:15:26;;;;;;;0.8;0.8;;;;;;;25.33;47.49316;939.0863;;;;
2021/06/25 13:17:55;;;;;;;0.9;0.9;;;;;;;25.4;47.96094;939.1049;;;;
2021/06/25 13:20:20;;;;;;;1.2;1.1;;;;;;;25.12;49.3584;939.1438;;;;
2021/06/25 13:22:45;;;;;;;1.2;1;;;;;;;24.54;49.88379;939.142;;;;
2021/06/25 13:25:11;;;;;;;0.8;0.8;;;;;;;24.49;49.28906;939.1077;;;;
2021/06/25 13:27:36;;;;;;;1.2;1.1;;;;;;;23.9;51.73145;939.1125;;;;
2021/06/25 13:30:01;;;;;;;1.1;1;;;;;;;23.81;51.25;939.0881;;;;
2021/06/25 13:32:27;;;;;;;1.4;1;;;;;;;23.88;50.28125;939.0522;;;;
2021/06/25 13:35:45;;;;;;;2.3;0.9;;;;;;;23.87;51.95117;939.0398;;;;
2021/06/25 13:38:14;;;;;;;1.5;1;;;;;;;24.14;51.2998;938.9727;;;;
2021/06/25 13:40:39;;;;;;;1.1;1;;;;;;;24.17;51.01953;939.0042;;;;
2021/06/25 13:43:07;;;;;;;1.6;1;;;;;;;24.02;51.59277;939.0026;;;;
2021/06/25 13:45:32;;;;;;;0.8;0.8;;;;;;;24.29;51.00977;938.9931;;;;
2021/06/25 13:48:02;;;;;;;1.6;1;;;;;;;24.37;49.65234;938.9856;;;;
2021/06/25 13:50:30;;;;;;;1.9;1.3;;;;;;;24.26;49.3457;938.9385;;;;
2021/06/25 13:52:55;;;;;;;3.4;1.3;;;;;;;24.01;53.4502;938.9965;;;;
2021/06/25 13:55:21;;;;;;;1.2;1.1;;;;;;;23.27;53.16211;939.0452;;;;
2021/06/25 13:57:46;;;;;;;1.3;1.2;;;;;;;22.87;54.53613;938.9913;;;;
2021/06/25 14:00:12;;;;;;;1.4;1.3;;;;;;;22.42;56.40527;938.9746;;;;
2021/06/25 14:02:37;;;;;;;1.3;1.2;;;;;;;21.81;59.8291;938.9547;;;;
2021/06/25 14:05:07;;;;;;;2.4;1.3;;;;;;;22.22;57.5293;938.9691;;;;
2021/06/25 14:07:37;;;;;;;1.4;1.3;;;;;;;22.56;56.39844;939.0041;;;;
2021/06/25 14:10:02;;;;;;;1.4;1.3;;;;;;;22.54;57.92188;939.0292;;;;
2021/06/25 14:12:27;;;;;;;1.3;1.2;;;;;;;22.71;54.96289;939.0672;;;;
2021/06/25 14:15:12;;;;;;;1.3;1.2;;;;;;;22.81;54.36328;938.9858;;;;
2021/06/25 14:17:42;;;;;;;1.3;1.2;;;;;;;22.95;54.93262;939.0421;;;;
2021/06/25 14:20:13;;;;;;;2;1.3;;;;;;;22.79;56.96777;939.0623;;;;
2021/06/25 14:22:42;;;;;;;1.5;1.4;;;;;;;22.86;54.88672;939.0103;;;;
2021/06/25 14:25:07;;;;;;;2.2;1.2;;;;;;;23.03;54.02637;938.9866;;;;
2021/06/25 14:27:32;;;;;;;1.5;1.2;;;;;;;22.98;53.60938;938.9914;;;;
2021/06/25 14:29:59;;;;;;;1.4;1.3;;;;;;;22.64;55.58789;939.0438;;;;
2021/06/25 14:32:30;;;;;;;1.4;1.3;;;;;;;21.99;55.57617;939.0276;;;;
2021/06/25 14:34:57;;;;;;;1.3;1.2;;;;;;;21.44;55.13184;939.0189;;;;